sensor_id;sensor_type;location;lat;lon;timestamp;P1;durP1;ratioP1;P2;durP2;ratioP2
55784;SDS011;41709;52.536;5.688;2022-07-12T00:00:35;2.38;;;2.17;;
55784;SDS011;41709;52.536;5.688;2022-07-12T00:03:01;2.50;;;2.30;;
55784;SDS011;41709;52.536;5.688;2022-07-12T00:05:26;3.72;;;2.40;;
55784;SDS011;41709;52.536;5.688;2022-07-12T00:07:52;2.38;;;2.17;;
55784;SDS011;41709;52.536;5.688;2022-07-12T00:10:17;3.30;;;2.30;;
55784;SDS011;41709;52.536;5.688;2022-07-12T00:12:43;3.05;;;2.30;;
55784;SDS011;41709;52.536;5.688;2022-07-12T00:15:08;2.60;;;2.40;;
55784;SDS011;41709;52.536;5.688;2022-07-12T00:17:35;2.58;;;2.10;;
55784;SDS011;41709;52.536;5.688;2022-07-12T00:20:00;2.67;;;2.47;;
55784;SDS011;41709;52.536;5.688;2022-07-12T00:22:26;4.22;;;2.60;;
55784;SDS011;41709;52.536;5.688;2022-07-12T00:24:53;3.20;;;2.90;;
55784;SDS011;41709;52.536;5.688;2022-07-12T00:27:19;3.53;;;3.22;;
55784;SDS011;41709;52.536;5.688;2022-07-12T00:29:45;4.25;;;2.40;;
55784;SDS011;41709;52.536;5.688;2022-07-12T00:32:10;3.55;;;2.75;;
55784;SDS011;41709;52.536;5.688;2022-07-12T00:34:36;3.72;;;2.65;;
55784;SDS011;41709;52.536;5.688;2022-07-12T00:37:01;3.60;;;2.72;;
55784;SDS011;41709;52.536;5.688;2022-07-12T00:39:27;4.53;;;2.65;;
55784;SDS011;41709;52.536;5.688;2022-07-12T00:41:53;3.13;;;2.92;;
55784;SDS011;41709;52.536;5.688;2022-07-12T00:44:18;2.92;;;2.63;;
55784;SDS011;41709;52.536;5.688;2022-07-12T00:46:44;3.28;;;2.75;;
55784;SDS011;41709;52.536;5.688;2022-07-12T00:49:11;3.03;;;2.67;;
55784;SDS011;41709;52.536;5.688;2022-07-12T00:51:40;4.00;;;2.80;;
55784;SDS011;41709;52.536;5.688;2022-07-12T00:54:08;3.28;;;2.60;;
55784;SDS011;41709;52.536;5.688;2022-07-12T00:56:34;2.70;;;2.50;;
55784;SDS011;41709;52.536;5.688;2022-07-12T00:58:59;3.28;;;2.85;;
55784;SDS011;41709;52.536;5.688;2022-07-12T01:01:25;2.75;;;2.55;;
55784;SDS011;41709;52.536;5.688;2022-07-12T01:03:52;4.90;;;2.83;;
55784;SDS011;41709;52.536;5.688;2022-07-12T01:06:18;3.55;;;3.25;;
55784;SDS011;41709;52.536;5.688;2022-07-12T01:08:45;2.47;;;2.28;;
55784;SDS011;41709;52.536;5.688;2022-07-12T01:11:11;11.65;;;3.10;;
55784;SDS011;41709;52.536;5.688;2022-07-12T01:13:37;2.55;;;2.35;;
55784;SDS011;41709;52.536;5.688;2022-07-12T01:16:04;2.53;;;2.28;;
55784;SDS011;41709;52.536;5.688;2022-07-12T01:18:30;3.65;;;3.08;;
55784;SDS011;41709;52.536;5.688;2022-07-12T01:20:58;3.05;;;2.67;;
55784;SDS011;41709;52.536;5.688;2022-07-12T01:23:28;2.78;;;2.58;;
55784;SDS011;41709;52.536;5.688;2022-07-12T01:25:54;6.15;;;2.85;;
55784;SDS011;41709;52.536;5.688;2022-07-12T01:28:20;2.70;;;2.33;;
55784;SDS011;41709;52.536;5.688;2022-07-12T01:30:46;3.20;;;2.90;;
55784;SDS011;41709;52.536;5.688;2022-07-12T01:33:12;3.22;;;2.72;;
55784;SDS011;41709;52.536;5.688;2022-07-12T01:35:38;3.30;;;3.00;;
55784;SDS011;41709;52.536;5.688;2022-07-12T01:38:04;3.60;;;2.40;;
55784;SDS011;41709;52.536;5.688;2022-07-12T01:40:31;4.20;;;2.92;;
55784;SDS011;41709;52.536;5.688;2022-07-12T01:42:56;4.25;;;2.65;;
55784;SDS011;41709;52.536;5.688;2022-07-12T01:45:22;3.47;;;2.90;;
55784;SDS011;41709;52.536;5.688;2022-07-12T01:47:48;3.53;;;3.22;;
55784;SDS011;41709;52.536;5.688;2022-07-12T01:50:14;3.00;;;2.70;;
55784;SDS011;41709;52.536;5.688;2022-07-12T01:52:40;2.80;;;2.58;;
55784;SDS011;41709;52.536;5.688;2022-07-12T01:55:07;3.65;;;2.75;;
55784;SDS011;41709;52.536;5.688;2022-07-12T01:57:34;4.18;;;2.60;;
55784;SDS011;41709;52.536;5.688;2022-07-12T02:00:00;2.50;;;2.30;;
55784;SDS011;41709;52.536;5.688;2022-07-12T02:02:28;2.88;;;2.58;;
55784;SDS011;41709;52.536;5.688;2022-07-12T02:04:56;2.58;;;2.35;;
55784;SDS011;41709;52.536;5.688;2022-07-12T02:07:23;2.90;;;2.70;;
55784;SDS011;41709;52.536;5.688;2022-07-12T02:09:48;2.55;;;2.35;;
55784;SDS011;41709;52.536;5.688;2022-07-12T02:12:14;3.83;;;2.60;;
55784;SDS011;41709;52.536;5.688;2022-07-12T02:14:39;3.10;;;2.75;;
55784;SDS011;41709;52.536;5.688;2022-07-12T02:17:05;3.65;;;2.60;;
55784;SDS011;41709;52.536;5.688;2022-07-12T02:19:30;2.85;;;2.55;;
55784;SDS011;41709;52.536;5.688;2022-07-12T02:21:56;3.03;;;2.72;;
55784;SDS011;41709;52.536;5.688;2022-07-12T02:24:21;2.90;;;2.60;;
55784;SDS011;41709;52.536;5.688;2022-07-12T02:26:47;3.67;;;2.55;;
55784;SDS011;41709;52.536;5.688;2022-07-12T02:29:12;2.95;;;2.65;;
55784;SDS011;41709;52.536;5.688;2022-07-12T02:31:38;3.20;;;2.90;;
55784;SDS011;41709;52.536;5.688;2022-07-12T02:34:04;3.63;;;2.78;;
55784;SDS011;41709;52.536;5.688;2022-07-12T02:36:30;4.10;;;2.58;;
55784;SDS011;41709;52.536;5.688;2022-07-12T02:38:56;2.67;;;2.47;;
55784;SDS011;41709;52.536;5.688;2022-07-12T02:41:27;5.85;;;2.83;;
55784;SDS011;41709;52.536;5.688;2022-07-12T02:43:52;2.53;;;2.33;;
55784;SDS011;41709;52.536;5.688;2022-07-12T02:46:18;4.18;;;2.65;;
55784;SDS011;41709;52.536;5.688;2022-07-12T02:48:43;3.20;;;2.90;;
55784;SDS011;41709;52.536;5.688;2022-07-12T02:51:09;3.40;;;3.10;;
55784;SDS011;41709;52.536;5.688;2022-07-12T02:53:35;4.07;;;3.03;;
55784;SDS011;41709;52.536;5.688;2022-07-12T02:56:01;3.60;;;3.30;;
55784;SDS011;41709;52.536;5.688;2022-07-12T02:58:28;3.17;;;2.88;;
55784;SDS011;41709;52.536;5.688;2022-07-12T03:00:53;5.22;;;3.20;;
55784;SDS011;41709;52.536;5.688;2022-07-12T03:03:19;7.22;;;3.30;;
55784;SDS011;41709;52.536;5.688;2022-07-12T03:05:44;3.10;;;2.80;;
55784;SDS011;41709;52.536;5.688;2022-07-12T03:08:10;3.33;;;3.03;;
55784;SDS011;41709;52.536;5.688;2022-07-12T03:10:37;3.33;;;2.92;;
55784;SDS011;41709;52.536;5.688;2022-07-12T03:13:03;3.00;;;2.72;;
55784;SDS011;41709;52.536;5.688;2022-07-12T03:15:29;3.17;;;2.90;;
55784;SDS011;41709;52.536;5.688;2022-07-12T03:17:56;3.40;;;3.08;;
55784;SDS011;41709;52.536;5.688;2022-07-12T03:20:22;3.05;;;2.75;;
55784;SDS011;41709;52.536;5.688;2022-07-12T03:22:48;3.15;;;2.85;;
55784;SDS011;41709;52.536;5.688;2022-07-12T03:25:16;4.25;;;2.88;;
55784;SDS011;41709;52.536;5.688;2022-07-12T03:27:43;3.55;;;2.60;;
55784;SDS011;41709;52.536;5.688;2022-07-12T03:30:09;3.60;;;2.75;;
55784;SDS011;41709;52.536;5.688;2022-07-12T03:32:35;3.95;;;3.08;;
55784;SDS011;41709;52.536;5.688;2022-07-12T03:35:02;3.03;;;2.75;;
55784;SDS011;41709;52.536;5.688;2022-07-12T03:37:28;3.33;;;3.03;;
55784;SDS011;41709;52.536;5.688;2022-07-12T03:40:04;3.30;;;3.00;;
55784;SDS011;41709;52.536;5.688;2022-07-12T03:42:30;3.22;;;2.90;;
55784;SDS011;41709;52.536;5.688;2022-07-12T03:44:56;3.28;;;2.97;;
55784;SDS011;41709;52.536;5.688;2022-07-12T03:47:21;3.42;;;2.97;;
55784;SDS011;41709;52.536;5.688;2022-07-12T03:49:47;3.50;;;3.20;;
55784;SDS011;41709;52.536;5.688;2022-07-12T03:52:12;3.17;;;2.65;;
55784;SDS011;41709;52.536;5.688;2022-07-12T03:54:38;3.28;;;2.97;;
55784;SDS011;41709;52.536;5.688;2022-07-12T03:57:03;3.97;;;2.90;;
55784;SDS011;41709;52.536;5.688;2022-07-12T03:59:38;4.32;;;3.22;;
55784;SDS011;41709;52.536;5.688;2022-07-12T04:02:04;4.10;;;3.10;;
55784;SDS011;41709;52.536;5.688;2022-07-12T04:04:30;3.45;;;3.15;;
55784;SDS011;41709;52.536;5.688;2022-07-12T04:06:55;2.72;;;2.53;;
55784;SDS011;41709;52.536;5.688;2022-07-12T04:09:21;3.90;;;2.72;;
55784;SDS011;41709;52.536;5.688;2022-07-12T04:11:47;3.88;;;2.97;;
55784;SDS011;41709;52.536;5.688;2022-07-12T04:14:12;3.67;;;3.38;;
55784;SDS011;41709;52.536;5.688;2022-07-12T04:16:38;3.10;;;2.80;;
55784;SDS011;41709;52.536;5.688;2022-07-12T04:19:03;3.17;;;2.95;;
55784;SDS011;41709;52.536;5.688;2022-07-12T04:21:30;3.65;;;3.25;;
55784;SDS011;41709;52.536;5.688;2022-07-12T04:23:56;3.97;;;3.15;;
55784;SDS011;41709;52.536;5.688;2022-07-12T04:26:22;3.47;;;3.17;;
55784;SDS011;41709;52.536;5.688;2022-07-12T04:28:47;2.90;;;2.70;;
55784;SDS011;41709;52.536;5.688;2022-07-12T04:31:13;3.40;;;3.10;;
55784;SDS011;41709;52.536;5.688;2022-07-12T04:33:38;2.97;;;2.78;;
55784;SDS011;41709;52.536;5.688;2022-07-12T04:36:04;3.47;;;2.90;;
55784;SDS011;41709;52.536;5.688;2022-07-12T04:38:30;3.15;;;2.85;;
55784;SDS011;41709;52.536;5.688;2022-07-12T04:40:55;3.30;;;2.92;;
55784;SDS011;41709;52.536;5.688;2022-07-12T04:43:21;4.18;;;3.80;;
55784;SDS011;41709;52.536;5.688;2022-07-12T04:45:49;3.40;;;3.10;;
55784;SDS011;41709;52.536;5.688;2022-07-12T04:48:15;3.08;;;2.88;;
55784;SDS011;41709;52.536;5.688;2022-07-12T04:50:41;3.70;;;3.08;;
55784;SDS011;41709;52.536;5.688;2022-07-12T04:53:07;3.33;;;3.00;;
55784;SDS011;41709;52.536;5.688;2022-07-12T04:55:32;3.65;;;2.78;;
55784;SDS011;41709;52.536;5.688;2022-07-12T04:57:58;3.50;;;3.13;;
55784;SDS011;41709;52.536;5.688;2022-07-12T05:00:24;3.30;;;3.00;;
55784;SDS011;41709;52.536;5.688;2022-07-12T05:02:49;3.47;;;3.17;;
55784;SDS011;41709;52.536;5.688;2022-07-12T05:05:15;3.55;;;3.08;;
55784;SDS011;41709;52.536;5.688;2022-07-12T05:07:41;3.38;;;3.08;;
55784;SDS011;41709;52.536;5.688;2022-07-12T05:10:07;2.85;;;2.65;;
55784;SDS011;41709;52.536;5.688;2022-07-12T05:12:35;5.45;;;3.13;;
55784;SDS011;41709;52.536;5.688;2022-07-12T05:15:02;4.07;;;3.38;;
55784;SDS011;41709;52.536;5.688;2022-07-12T05:17:28;4.05;;;2.90;;
55784;SDS011;41709;52.536;5.688;2022-07-12T05:19:54;3.25;;;2.95;;
55784;SDS011;41709;52.536;5.688;2022-07-12T05:22:20;3.85;;;2.90;;
55784;SDS011;41709;52.536;5.688;2022-07-12T05:24:45;3.00;;;2.80;;
55784;SDS011;41709;52.536;5.688;2022-07-12T05:27:11;6.18;;;2.90;;
55784;SDS011;41709;52.536;5.688;2022-07-12T05:29:37;3.85;;;3.15;;
55784;SDS011;41709;52.536;5.688;2022-07-12T05:32:02;4.45;;;3.30;;
55784;SDS011;41709;52.536;5.688;2022-07-12T05:34:29;4.00;;;3.35;;
55784;SDS011;41709;52.536;5.688;2022-07-12T05:36:54;3.60;;;3.30;;
55784;SDS011;41709;52.536;5.688;2022-07-12T05:39:20;4.85;;;3.22;;
55784;SDS011;41709;52.536;5.688;2022-07-12T05:41:45;3.03;;;2.83;;
55784;SDS011;41709;52.536;5.688;2022-07-12T05:44:14;3.37;;;3.07;;
55784;SDS011;41709;52.536;5.688;2022-07-12T05:46:41;3.45;;;3.17;;
55784;SDS011;41709;52.536;5.688;2022-07-12T05:49:07;3.58;;;2.67;;
55784;SDS011;41709;52.536;5.688;2022-07-12T05:51:33;3.38;;;2.83;;
55784;SDS011;41709;52.536;5.688;2022-07-12T05:54:17;2.95;;;2.63;;
55784;SDS011;41709;52.536;5.688;2022-07-12T05:56:43;3.17;;;2.88;;
55784;SDS011;41709;52.536;5.688;2022-07-12T05:59:08;3.10;;;2.80;;
55784;SDS011;41709;52.536;5.688;2022-07-12T06:01:34;2.88;;;2.67;;
55784;SDS011;41709;52.536;5.688;2022-07-12T06:03:59;5.07;;;3.00;;
55784;SDS011;41709;52.536;5.688;2022-07-12T06:06:25;2.97;;;2.78;;
55784;SDS011;41709;52.536;5.688;2022-07-12T06:08:50;3.03;;;2.70;;
55784;SDS011;41709;52.536;5.688;2022-07-12T06:11:16;4.65;;;2.97;;
55784;SDS011;41709;52.536;5.688;2022-07-12T06:13:42;3.13;;;2.83;;
55784;SDS011;41709;52.536;5.688;2022-07-12T06:16:07;3.95;;;3.10;;
55784;SDS011;41709;52.536;5.688;2022-07-12T06:18:35;3.47;;;3.17;;
55784;SDS011;41709;52.536;5.688;2022-07-12T06:21:00;4.20;;;3.15;;
55784;SDS011;41709;52.536;5.688;2022-07-12T06:23:26;11.40;;;3.95;;
55784;SDS011;41709;52.536;5.688;2022-07-12T06:25:52;3.78;;;3.17;;
55784;SDS011;41709;52.536;5.688;2022-07-12T06:28:17;3.90;;;3.00;;
55784;SDS011;41709;52.536;5.688;2022-07-12T06:30:43;3.00;;;2.67;;
55784;SDS011;41709;52.536;5.688;2022-07-12T06:33:08;4.47;;;3.00;;
55784;SDS011;41709;52.536;5.688;2022-07-12T06:35:34;3.17;;;2.88;;
55784;SDS011;41709;52.536;5.688;2022-07-12T06:38:00;3.15;;;2.45;;
55784;SDS011;41709;52.536;5.688;2022-07-12T06:40:25;3.08;;;2.70;;
55784;SDS011;41709;52.536;5.688;2022-07-12T06:42:51;4.03;;;2.60;;
55784;SDS011;41709;52.536;5.688;2022-07-12T06:45:16;6.90;;;2.75;;
55784;SDS011;41709;52.536;5.688;2022-07-12T06:47:43;3.25;;;2.95;;
55784;SDS011;41709;52.536;5.688;2022-07-12T06:50:08;3.65;;;2.70;;
55784;SDS011;41709;52.536;5.688;2022-07-12T06:52:34;2.88;;;2.67;;
55784;SDS011;41709;52.536;5.688;2022-07-12T06:55:00;2.60;;;2.40;;
55784;SDS011;41709;52.536;5.688;2022-07-12T06:57:25;2.83;;;2.45;;
55784;SDS011;41709;52.536;5.688;2022-07-12T06:59:52;4.22;;;2.38;;
55784;SDS011;41709;52.536;5.688;2022-07-12T07:02:18;2.53;;;2.33;;
55784;SDS011;41709;52.536;5.688;2022-07-12T07:04:43;5.07;;;2.40;;
55784;SDS011;41709;52.536;5.688;2022-07-12T07:07:09;2.58;;;2.38;;
55784;SDS011;41709;52.536;5.688;2022-07-12T07:09:34;3.45;;;2.60;;
55784;SDS011;41709;52.536;5.688;2022-07-12T07:12:00;2.83;;;2.20;;
55784;SDS011;41709;52.536;5.688;2022-07-12T07:14:26;3.42;;;2.38;;
55784;SDS011;41709;52.536;5.688;2022-07-12T07:16:55;2.50;;;2.30;;
55784;SDS011;41709;52.536;5.688;2022-07-12T07:19:20;2.50;;;2.30;;
55784;SDS011;41709;52.536;5.688;2022-07-12T07:21:49;3.17;;;2.72;;
55784;SDS011;41709;52.536;5.688;2022-07-12T07:24:15;3.33;;;2.13;;
55784;SDS011;41709;52.536;5.688;2022-07-12T07:26:41;2.83;;;2.53;;
55784;SDS011;41709;52.536;5.688;2022-07-12T07:29:06;3.05;;;2.85;;
55784;SDS011;41709;52.536;5.688;2022-07-12T07:31:51;4.22;;;3.10;;
55784;SDS011;41709;52.536;5.688;2022-07-12T07:34:16;3.08;;;2.80;;
55784;SDS011;41709;52.536;5.688;2022-07-12T07:36:42;2.97;;;2.70;;
55784;SDS011;41709;52.536;5.688;2022-07-12T07:39:07;4.43;;;3.20;;
55784;SDS011;41709;52.536;5.688;2022-07-12T07:41:33;4.30;;;3.00;;
55784;SDS011;41709;52.536;5.688;2022-07-12T07:43:59;3.33;;;3.03;;
55784;SDS011;41709;52.536;5.688;2022-07-12T07:46:24;3.33;;;3.03;;
55784;SDS011;41709;52.536;5.688;2022-07-12T07:48:50;3.50;;;3.20;;
55784;SDS011;41709;52.536;5.688;2022-07-12T07:51:16;3.53;;;3.22;;
55784;SDS011;41709;52.536;5.688;2022-07-12T07:53:41;3.40;;;3.10;;
55784;SDS011;41709;52.536;5.688;2022-07-12T07:56:07;3.40;;;3.13;;
55784;SDS011;41709;52.536;5.688;2022-07-12T07:58:32;3.40;;;3.10;;
55784;SDS011;41709;52.536;5.688;2022-07-12T08:00:58;4.38;;;3.28;;
55784;SDS011;41709;52.536;5.688;2022-07-12T08:03:23;3.65;;;3.35;;
55784;SDS011;41709;52.536;5.688;2022-07-12T08:05:50;3.35;;;2.95;;
55784;SDS011;41709;52.536;5.688;2022-07-12T08:08:16;4.63;;;2.88;;
55784;SDS011;41709;52.536;5.688;2022-07-12T08:10:42;5.22;;;2.90;;
55784;SDS011;41709;52.536;5.688;2022-07-12T08:13:08;4.28;;;3.13;;
55784;SDS011;41709;52.536;5.688;2022-07-12T08:15:34;4.90;;;3.63;;
55784;SDS011;41709;52.536;5.688;2022-07-12T08:18:00;3.85;;;3.50;;
55784;SDS011;41709;52.536;5.688;2022-07-12T08:20:25;3.80;;;3.50;;
55784;SDS011;41709;52.536;5.688;2022-07-12T08:22:51;3.92;;;3.63;;
55784;SDS011;41709;52.536;5.688;2022-07-12T08:25:17;3.67;;;3.38;;
55784;SDS011;41709;52.536;5.688;2022-07-12T08:27:42;3.42;;;3.22;;
55784;SDS011;41709;52.536;5.688;2022-07-12T08:30:08;5.57;;;3.70;;
55784;SDS011;41709;52.536;5.688;2022-07-12T08:32:35;4.07;;;3.42;;
55784;SDS011;41709;52.536;5.688;2022-07-12T08:35:01;3.60;;;3.30;;
55784;SDS011;41709;52.536;5.688;2022-07-12T08:37:27;4.20;;;3.38;;
55784;SDS011;41709;52.536;5.688;2022-07-12T08:39:52;6.05;;;3.50;;
55784;SDS011;41709;52.536;5.688;2022-07-12T08:42:18;3.50;;;3.20;;
55784;SDS011;41709;52.536;5.688;2022-07-12T08:44:44;4.43;;;3.58;;
55784;SDS011;41709;52.536;5.688;2022-07-12T08:47:18;3.90;;;3.60;;
55784;SDS011;41709;52.536;5.688;2022-07-12T08:49:55;7.90;;;3.58;;
55784;SDS011;41709;52.536;5.688;2022-07-12T08:55:31;3.63;;;3.33;;
55784;SDS011;41709;52.536;5.688;2022-07-12T08:58:01;3.05;;;2.55;;
55784;SDS011;41709;52.536;5.688;2022-07-12T09:00:30;3.15;;;2.65;;
55784;SDS011;41709;52.536;5.688;2022-07-12T09:02:59;3.00;;;2.80;;
55784;SDS011;41709;52.536;5.688;2022-07-12T09:05:29;4.73;;;3.13;;
55784;SDS011;41709;52.536;5.688;2022-07-12T09:08:06;2.90;;;1.70;;
55784;SDS011;41709;52.536;5.688;2022-07-12T09:10:35;6.43;;;2.58;;
55784;SDS011;41709;52.536;5.688;2022-07-12T09:13:18;1.80;;;1.60;;
55784;SDS011;41709;52.536;5.688;2022-07-12T09:15:43;2.05;;;1.83;;
55784;SDS011;41709;52.536;5.688;2022-07-12T09:18:11;2.15;;;1.98;;
55784;SDS011;41709;52.536;5.688;2022-07-12T09:20:51;3.90;;;1.92;;
55784;SDS011;41709;52.536;5.688;2022-07-12T09:23:17;2.67;;;1.65;;
55784;SDS011;41709;52.536;5.688;2022-07-12T09:25:43;2.28;;;1.90;;
55784;SDS011;41709;52.536;5.688;2022-07-12T09:28:10;2.25;;;2.05;;
55784;SDS011;41709;52.536;5.688;2022-07-12T09:30:37;2.53;;;1.83;;
55784;SDS011;41709;52.536;5.688;2022-07-12T09:33:12;1.90;;;1.80;;
55784;SDS011;41709;52.536;5.688;2022-07-12T09:36:01;3.60;;;1.83;;
55784;SDS011;41709;52.536;5.688;2022-07-12T09:38:59;1.70;;;1.60;;
55784;SDS011;41709;52.536;5.688;2022-07-12T09:41:27;2.60;;;2.05;;
55784;SDS011;41709;52.536;5.688;2022-07-12T09:43:53;2.05;;;1.90;;
55784;SDS011;41709;52.536;5.688;2022-07-12T09:46:18;1.73;;;1.33;;
55784;SDS011;41709;52.536;5.688;2022-07-12T09:48:46;2.00;;;1.90;;
55784;SDS011;41709;52.536;5.688;2022-07-12T09:51:15;1.98;;;1.75;;
55784;SDS011;41709;52.536;5.688;2022-07-12T09:53:48;1.73;;;1.60;;
55784;SDS011;41709;52.536;5.688;2022-07-12T09:56:17;2.63;;;2.20;;
55784;SDS011;41709;52.536;5.688;2022-07-12T09:58:51;1.98;;;1.77;;
55784;SDS011;41709;52.536;5.688;2022-07-12T10:01:19;3.20;;;2.10;;
55784;SDS011;41709;52.536;5.688;2022-07-12T10:03:45;3.28;;;1.80;;
55784;SDS011;41709;52.536;5.688;2022-07-12T10:06:13;4.93;;;1.80;;
55784;SDS011;41709;52.536;5.688;2022-07-12T10:08:50;2.63;;;1.30;;
55784;SDS011;41709;52.536;5.688;2022-07-12T10:11:16;1.27;;;1.17;;
55784;SDS011;41709;52.536;5.688;2022-07-12T10:13:44;4.70;;;1.63;;
55784;SDS011;41709;52.536;5.688;2022-07-12T10:16:10;1.55;;;0.93;;
55784;SDS011;41709;52.536;5.688;2022-07-12T10:18:38;2.53;;;1.10;;
55784;SDS011;41709;52.536;5.688;2022-07-12T10:21:17;1.92;;;1.10;;
55784;SDS011;41709;52.536;5.688;2022-07-12T10:23:44;1.98;;;1.52;;
55784;SDS011;41709;52.536;5.688;2022-07-12T10:26:23;2.15;;;1.00;;
55784;SDS011;41709;52.536;5.688;2022-07-12T10:28:57;2.08;;;1.10;;
55784;SDS011;41709;52.536;5.688;2022-07-12T10:31:30;1.92;;;1.15;;
55784;SDS011;41709;52.536;5.688;2022-07-12T10:34:14;2.35;;;1.60;;
55784;SDS011;41709;52.536;5.688;2022-07-12T10:37:29;6.22;;;2.20;;
55784;SDS011;41709;52.536;5.688;2022-07-12T10:39:30;2.15;;;1.00;;
55784;SDS011;41709;52.536;5.688;2022-07-12T10:44:33;1.45;;;0.60;;
55784;SDS011;41709;52.536;5.688;2022-07-12T10:47:00;1.25;;;0.85;;
55784;SDS011;41709;52.536;5.688;2022-07-12T10:49:27;1.13;;;1.02;;
55784;SDS011;41709;52.536;5.688;2022-07-12T10:54:39;2.00;;;0.77;;
55784;SDS011;41709;52.536;5.688;2022-07-12T10:57:07;0.40;;;0.40;;
55784;SDS011;41709;52.536;5.688;2022-07-12T10:59:34;1.23;;;0.57;;
55784;SDS011;41709;52.536;5.688;2022-07-12T11:02:03;1.05;;;0.60;;
55784;SDS011;41709;52.536;5.688;2022-07-12T11:04:30;3.03;;;0.75;;
55784;SDS011;41709;52.536;5.688;2022-07-12T11:06:55;0.75;;;0.52;;
55784;SDS011;41709;52.536;5.688;2022-07-12T11:09:25;0.85;;;0.75;;
55784;SDS011;41709;52.536;5.688;2022-07-12T11:11:53;1.98;;;0.70;;
55784;SDS011;41709;52.536;5.688;2022-07-12T11:14:23;0.98;;;0.80;;
55784;SDS011;41709;52.536;5.688;2022-07-12T11:16:50;1.60;;;0.90;;
55784;SDS011;41709;52.536;5.688;2022-07-12T11:19:20;2.75;;;0.88;;
55784;SDS011;41709;52.536;5.688;2022-07-12T11:21:48;1.65;;;0.82;;
55784;SDS011;41709;52.536;5.688;2022-07-12T11:24:24;1.40;;;0.80;;
55784;SDS011;41709;52.536;5.688;2022-07-12T11:26:51;1.10;;;0.95;;
55784;SDS011;41709;52.536;5.688;2022-07-12T11:29:17;0.90;;;0.75;;
55784;SDS011;41709;52.536;5.688;2022-07-12T11:31:43;0.63;;;0.52;;
55784;SDS011;41709;52.536;5.688;2022-07-12T11:34:19;1.77;;;0.60;;
55784;SDS011;41709;52.536;5.688;2022-07-12T11:36:46;1.65;;;0.80;;
55784;SDS011;41709;52.536;5.688;2022-07-12T11:39:13;2.08;;;0.82;;
55784;SDS011;41709;52.536;5.688;2022-07-12T11:41:38;2.72;;;1.05;;
55784;SDS011;41709;52.536;5.688;2022-07-12T11:44:04;3.45;;;1.17;;
55784;SDS011;41709;52.536;5.688;2022-07-12T11:46:29;1.70;;;1.45;;
55784;SDS011;41709;52.536;5.688;2022-07-12T11:48:55;2.60;;;1.17;;
55784;SDS011;41709;52.536;5.688;2022-07-12T11:51:20;3.90;;;0.77;;
55784;SDS011;41709;52.536;5.688;2022-07-12T11:53:52;1.00;;;0.68;;
55784;SDS011;41709;52.536;5.688;2022-07-12T11:56:28;0.90;;;0.60;;
55784;SDS011;41709;52.536;5.688;2022-07-12T11:58:55;0.95;;;0.68;;
55784;SDS011;41709;52.536;5.688;2022-07-12T12:01:22;0.70;;;0.60;;
55784;SDS011;41709;52.536;5.688;2022-07-12T12:03:47;0.32;;;0.32;;
55784;SDS011;41709;52.536;5.688;2022-07-12T12:06:14;0.65;;;0.40;;
55784;SDS011;41709;52.536;5.688;2022-07-12T12:08:40;2.97;;;0.60;;
55784;SDS011;41709;52.536;5.688;2022-07-12T12:11:06;0.57;;;0.50;;
55784;SDS011;41709;52.536;5.688;2022-07-12T12:13:32;1.27;;;0.50;;
55784;SDS011;41709;52.536;5.688;2022-07-12T12:15:59;0.40;;;0.40;;
55784;SDS011;41709;52.536;5.688;2022-07-12T12:18:33;0.95;;;0.43;;
55784;SDS011;41709;52.536;5.688;2022-07-12T12:21:04;0.40;;;0.40;;
55784;SDS011;41709;52.536;5.688;2022-07-12T12:23:38;2.90;;;1.17;;
55784;SDS011;41709;52.536;5.688;2022-07-12T12:26:15;1.17;;;0.57;;
55784;SDS011;41709;52.536;5.688;2022-07-12T12:31:15;0.68;;;0.47;;
55784;SDS011;41709;52.536;5.688;2022-07-12T12:33:52;1.65;;;0.57;;
55784;SDS011;41709;52.536;5.688;2022-07-12T12:36:25;0.40;;;0.40;;
55784;SDS011;41709;52.536;5.688;2022-07-12T12:38:52;0.85;;;0.43;;
55784;SDS011;41709;52.536;5.688;2022-07-12T12:41:19;2.20;;;0.40;;
55784;SDS011;41709;52.536;5.688;2022-07-12T12:43:47;0.60;;;0.60;;
55784;SDS011;41709;52.536;5.688;2022-07-12T12:46:22;1.30;;;0.47;;
55784;SDS011;41709;52.536;5.688;2022-07-12T12:48:47;4.03;;;0.68;;
55784;SDS011;41709;52.536;5.688;2022-07-12T12:51:13;2.65;;;1.30;;
55784;SDS011;41709;52.536;5.688;2022-07-12T12:53:40;1.38;;;0.50;;
55784;SDS011;41709;52.536;5.688;2022-07-12T12:56:14;0.50;;;0.50;;
55784;SDS011;41709;52.536;5.688;2022-07-12T12:58:39;1.05;;;0.30;;
55784;SDS011;41709;52.536;5.688;2022-07-12T13:01:06;2.92;;;0.50;;
55784;SDS011;41709;52.536;5.688;2022-07-12T13:03:32;1.08;;;0.50;;
55784;SDS011;41709;52.536;5.688;2022-07-12T13:05:58;0.35;;;0.32;;
55784;SDS011;41709;52.536;5.688;2022-07-12T13:08:24;0.80;;;0.60;;
55784;SDS011;41709;52.536;5.688;2022-07-12T13:10:51;1.80;;;0.50;;
55784;SDS011;41709;52.536;5.688;2022-07-12T13:13:52;1.67;;;0.50;;
55784;SDS011;41709;52.536;5.688;2022-07-12T13:16:19;2.00;;;0.20;;
55784;SDS011;41709;52.536;5.688;2022-07-12T13:18:45;4.57;;;0.75;;
55784;SDS011;41709;52.536;5.688;2022-07-12T13:21:11;0.40;;;0.38;;
55784;SDS011;41709;52.536;5.688;2022-07-12T13:23:36;0.65;;;0.52;;
55784;SDS011;41709;52.536;5.688;2022-07-12T13:26:02;1.33;;;0.88;;
55784;SDS011;41709;52.536;5.688;2022-07-12T13:28:27;1.38;;;0.57;;
55784;SDS011;41709;52.536;5.688;2022-07-12T13:30:53;1.63;;;0.50;;
55784;SDS011;41709;52.536;5.688;2022-07-12T13:33:20;0.60;;;0.50;;
55784;SDS011;41709;52.536;5.688;2022-07-12T13:35:45;0.85;;;0.63;;
55784;SDS011;41709;52.536;5.688;2022-07-12T13:38:12;1.83;;;0.43;;
55784;SDS011;41709;52.536;5.688;2022-07-12T13:40:37;0.65;;;0.60;;
55784;SDS011;41709;52.536;5.688;2022-07-12T13:43:03;0.90;;;0.90;;
55784;SDS011;41709;52.536;5.688;2022-07-12T13:45:28;2.03;;;0.68;;
55784;SDS011;41709;52.536;5.688;2022-07-12T13:47:54;1.80;;;0.70;;
55784;SDS011;41709;52.536;5.688;2022-07-12T13:50:20;1.15;;;0.70;;
55784;SDS011;41709;52.536;5.688;2022-07-12T13:52:47;2.63;;;0.68;;
55784;SDS011;41709;52.536;5.688;2022-07-12T13:55:13;1.13;;;0.68;;
55784;SDS011;41709;52.536;5.688;2022-07-12T13:57:42;1.75;;;0.73;;
55784;SDS011;41709;52.536;5.688;2022-07-12T14:00:09;1.60;;;1.00;;
55784;SDS011;41709;52.536;5.688;2022-07-12T14:02:46;1.50;;;0.60;;
55784;SDS011;41709;52.536;5.688;2022-07-12T14:05:13;1.00;;;0.70;;
55784;SDS011;41709;52.536;5.688;2022-07-12T14:07:40;4.80;;;0.80;;
55784;SDS011;41709;52.536;5.688;2022-07-12T14:10:07;3.13;;;0.68;;
55784;SDS011;41709;52.536;5.688;2022-07-12T14:12:34;0.95;;;0.63;;
55784;SDS011;41709;52.536;5.688;2022-07-12T14:15:00;1.05;;;0.60;;
55784;SDS011;41709;52.536;5.688;2022-07-12T14:20:15;1.10;;;0.60;;
55784;SDS011;41709;52.536;5.688;2022-07-12T14:22:50;1.17;;;0.80;;
55784;SDS011;41709;52.536;5.688;2022-07-12T14:25:17;0.73;;;0.73;;
55784;SDS011;41709;52.536;5.688;2022-07-12T14:27:43;0.55;;;0.55;;
55784;SDS011;41709;52.536;5.688;2022-07-12T14:30:10;1.10;;;0.85;;
55784;SDS011;41709;52.536;5.688;2022-07-12T14:32:37;4.50;;;2.67;;
55784;SDS011;41709;52.536;5.688;2022-07-12T14:35:03;1.50;;;1.20;;
55784;SDS011;41709;52.536;5.688;2022-07-12T14:37:31;10.10;;;6.90;;
55784;SDS011;41709;52.536;5.688;2022-07-12T14:39:57;4.05;;;2.30;;
55784;SDS011;41709;52.536;5.688;2022-07-12T14:42:23;3.25;;;2.20;;
55784;SDS011;41709;52.536;5.688;2022-07-12T14:44:48;1.08;;;1.00;;
55784;SDS011;41709;52.536;5.688;2022-07-12T14:47:14;0.95;;;0.77;;
55784;SDS011;41709;52.536;5.688;2022-07-12T14:49:40;0.77;;;0.77;;
55784;SDS011;41709;52.536;5.688;2022-07-12T14:52:06;1.45;;;0.80;;
55784;SDS011;41709;52.536;5.688;2022-07-12T14:54:32;0.80;;;0.80;;
55784;SDS011;41709;52.536;5.688;2022-07-12T14:56:58;2.15;;;1.40;;
55784;SDS011;41709;52.536;5.688;2022-07-12T14:59:23;4.13;;;1.80;;
55784;SDS011;41709;52.536;5.688;2022-07-12T15:01:49;1.65;;;1.38;;